sensor_id;sensor_type;location;lat;lon;timestamp;temperature;humidity
2030;DHT22;1020;48.854;8.830;2023-07-20T00:01:49;18.10;99.90
2030;DHT22;1020;48.854;8.830;2023-07-20T00:04:16;18.10;99.90
2030;DHT22;1020;48.854;8.830;2023-07-20T00:06:44;18.00;99.90
2030;DHT22;1020;48.854;8.830;2023-07-20T00:09:11;18.00;99.90
2030;DHT22;1020;48.854;8.830;2023-07-20T00:11:38;17.90;99.90
2030;DHT22;1020;48.854;8.830;2023-07-20T00:14:06;17.90;99.90
2030;DHT22;1020;48.854;8.830;2023-07-20T00:16:32;17.80;99.90
2030;DHT22;1020;48.854;8.830;2023-07-20T00:18:59;17.70;99.90
2030;DHT22;1020;48.854;8.830;2023-07-20T00:21:26;17.70;99.90
2030;DHT22;1020;48.854;8.830;2023-07-20T00:23:54;18.50;99.90
2030;DHT22;1020;48.854;8.830;2023-07-20T00:26:21;17.70;99.90
2030;DHT22;1020;48.854;8.830;2023-07-20T00:28:50;17.60;99.90
2030;DHT22;1020;48.854;8.830;2023-07-20T00:31:17;17.60;99.90
2030;DHT22;1020;48.854;8.830;2023-07-20T00:33:43;17.50;99.90
2030;DHT22;1020;48.854;8.830;2023-07-20T00:36:10;17.50;99.90
2030;DHT22;1020;48.854;8.830;2023-07-20T00:38:37;17.50;99.90
2030;DHT22;1020;48.854;8.830;2023-07-20T00:41:05;17.40;99.90
2030;DHT22;1020;48.854;8.830;2023-07-20T00:43:32;17.40;99.90
2030;DHT22;1020;48.854;8.830;2023-07-20T00:45:59;17.30;99.90
2030;DHT22;1020;48.854;8.830;2023-07-20T00:48:28;17.30;99.90
2030;DHT22;1020;48.854;8.830;2023-07-20T00:50:55;17.30;99.90
2030;DHT22;1020;48.854;8.830;2023-07-20T00:53:22;17.30;99.90
2030;DHT22;1020;48.854;8.830;2023-07-20T00:55:50;17.20;99.90
2030;DHT22;1020;48.854;8.830;2023-07-20T00:58:18;17.20;99.90
2030;DHT22;1020;48.854;8.830;2023-07-20T01:00:45;17.10;99.90
2030;DHT22;1020;48.854;8.830;2023-07-20T01:03:12;17.10;1.00
2030;DHT22;1020;48.854;8.830;2023-07-20T01:05:59;17.10;1.00
2030;DHT22;1020;48.854;8.830;2023-07-20T01:08:40;17.10;1.00
2030;DHT22;1020;48.854;8.830;2023-07-20T01:11:13;17.00;1.00
2030;DHT22;1020;48.854;8.830;2023-07-20T01:13:44;17.00;1.00
2030;DHT22;1020;48.854;8.830;2023-07-20T01:16:11;17.00;1.00
2030;DHT22;1020;48.854;8.830;2023-07-20T01:18:38;17.00;1.00
2030;DHT22;1020;48.854;8.830;2023-07-20T01:21:09;16.90;1.00
2030;DHT22;1020;48.854;8.830;2023-07-20T01:27:00;16.90;1.00
2030;DHT22;1020;48.854;8.830;2023-07-20T01:29:52;16.80;1.00
2030;DHT22;1020;48.854;8.830;2023-07-20T01:32:23;16.70;1.00
2030;DHT22;1020;48.854;8.830;2023-07-20T01:34:52;16.70;1.00
2030;DHT22;1020;48.854;8.830;2023-07-20T01:37:21;16.70;1.00
2030;DHT22;1020;48.854;8.830;2023-07-20T01:39:51;16.60;1.00
2030;DHT22;1020;48.854;8.830;2023-07-20T01:42:20;16.60;1.00
2030;DHT22;1020;48.854;8.830;2023-07-20T01:44:48;16.50;1.00
2030;DHT22;1020;48.854;8.830;2023-07-20T01:47:14;16.40;1.00
2030;DHT22;1020;48.854;8.830;2023-07-20T01:49:42;16.40;1.00
2030;DHT22;1020;48.854;8.830;2023-07-20T01:52:09;17.70;1.00
2030;DHT22;1020;48.854;8.830;2023-07-20T01:54:36;16.30;1.00
2030;DHT22;1020;48.854;8.830;2023-07-20T01:57:03;16.30;1.00
2030;DHT22;1020;48.854;8.830;2023-07-20T01:59:30;16.30;1.00
2030;DHT22;1020;48.854;8.830;2023-07-20T02:01:56;16.20;1.00
2030;DHT22;1020;48.854;8.830;2023-07-20T02:04:23;16.20;1.00
2030;DHT22;1020;48.854;8.830;2023-07-20T02:06:51;16.10;1.00
2030;DHT22;1020;48.854;8.830;2023-07-20T02:09:18;16.10;1.00
2030;DHT22;1020;48.854;8.830;2023-07-20T02:11:45;16.10;1.00
2030;DHT22;1020;48.854;8.830;2023-07-20T02:14:12;16.10;1.00
2030;DHT22;1020;48.854;8.830;2023-07-20T02:16:39;16.00;1.50
2030;DHT22;1020;48.854;8.830;2023-07-20T02:19:05;16.00;5.90
2030;DHT22;1020;48.854;8.830;2023-07-20T02:21:32;16.10;17.60
2030;DHT22;1020;48.854;8.830;2023-07-20T02:24:01;16.00;23.60
2030;DHT22;1020;48.854;8.830;2023-07-20T02:26:27;16.00;40.00
2030;DHT22;1020;48.854;8.830;2023-07-20T02:28:54;16.00;56.00
2030;DHT22;1020;48.854;8.830;2023-07-20T02:31:21;16.00;73.70
2030;DHT22;1020;48.854;8.830;2023-07-20T02:33:48;15.90;93.70
2030;DHT22;1020;48.854;8.830;2023-07-20T02:36:14;17.80;99.90
2030;DHT22;1020;48.854;8.830;2023-07-20T02:38:42;15.80;99.90
2030;DHT22;1020;48.854;8.830;2023-07-20T02:41:10;15.90;99.90
2030;DHT22;1020;48.854;8.830;2023-07-20T02:43:37;15.90;99.90
2030;DHT22;1020;48.854;8.830;2023-07-20T02:46:03;15.80;99.90
2030;DHT22;1020;48.854;8.830;2023-07-20T02:48:30;15.70;99.90
2030;DHT22;1020;48.854;8.830;2023-07-20T02:50:57;15.70;99.90
2030;DHT22;1020;48.854;8.830;2023-07-20T02:53:24;15.70;99.90
2030;DHT22;1020;48.854;8.830;2023-07-20T02:55:50;15.60;99.90
2030;DHT22;1020;48.854;8.830;2023-07-20T02:58:18;15.50;99.90
2030;DHT22;1020;48.854;8.830;2023-07-20T03:00:45;15.50;99.90
2030;DHT22;1020;48.854;8.830;2023-07-20T03:03:12;15.50;1.00
2030;DHT22;1020;48.854;8.830;2023-07-20T03:05:40;15.50;1.00
2030;DHT22;1020;48.854;8.830;2023-07-20T03:08:07;15.50;1.00
2030;DHT22;1020;48.854;8.830;2023-07-20T03:10:38;15.40;1.00
2030;DHT22;1020;48.854;8.830;2023-07-20T03:13:06;15.40;1.00
2030;DHT22;1020;48.854;8.830;2023-07-20T03:15:34;15.40;1.00
2030;DHT22;1020;48.854;8.830;2023-07-20T03:18:01;15.30;1.00
2030;DHT22;1020;48.854;8.830;2023-07-20T03:20:28;15.30;1.00
2030;DHT22;1020;48.854;8.830;2023-07-20T03:22:55;15.30;87.70
2030;DHT22;1020;48.854;8.830;2023-07-20T03:25:22;15.30;75.20
2030;DHT22;1020;48.854;8.830;2023-07-20T03:27:48;15.30;93.00
2030;DHT22;1020;48.854;8.830;2023-07-20T03:30:15;15.20;80.20
2030;DHT22;1020;48.854;8.830;2023-07-20T03:32:43;15.20;99.90
2030;DHT22;1020;48.854;8.830;2023-07-20T03:35:10;15.10;99.90
2030;DHT22;1020;48.854;8.830;2023-07-20T03:37:37;15.10;99.90
2030;DHT22;1020;48.854;8.830;2023-07-20T03:40:05;15.20;99.90
2030;DHT22;1020;48.854;8.830;2023-07-20T03:42:33;15.10;99.90
2030;DHT22;1020;48.854;8.830;2023-07-20T03:44:59;15.10;99.90
2030;DHT22;1020;48.854;8.830;2023-07-20T03:47:26;15.00;99.90
2030;DHT22;1020;48.854;8.830;2023-07-20T03:49:54;15.10;99.90
2030;DHT22;1020;48.854;8.830;2023-07-20T03:52:21;15.10;99.90
2030;DHT22;1020;48.854;8.830;2023-07-20T03:54:49;15.00;99.90
2030;DHT22;1020;48.854;8.830;2023-07-20T03:57:16;15.10;99.90
2030;DHT22;1020;48.854;8.830;2023-07-20T03:59:45;15.00;99.90
2030;DHT22;1020;48.854;8.830;2023-07-20T04:02:12;15.00;1.00
2030;DHT22;1020;48.854;8.830;2023-07-20T04:04:39;15.10;1.00
2030;DHT22;1020;48.854;8.830;2023-07-20T04:07:07;15.10;1.00
2030;DHT22;1020;48.854;8.830;2023-07-20T04:09:33;15.10;1.00
2030;DHT22;1020;48.854;8.830;2023-07-20T04:12:00;15.00;1.00
2030;DHT22;1020;48.854;8.830;2023-07-20T04:14:27;15.10;1.00
2030;DHT22;1020;48.854;8.830;2023-07-20T04:16:54;15.10;1.00
2030;DHT22;1020;48.854;8.830;2023-07-20T04:19:20;15.10;1.00
2030;DHT22;1020;48.854;8.830;2023-07-20T04:21:47;15.00;1.00
2030;DHT22;1020;48.854;8.830;2023-07-20T04:24:15;15.10;90.60
2030;DHT22;1020;48.854;8.830;2023-07-20T04:26:42;15.10;1.00
2030;DHT22;1020;48.854;8.830;2023-07-20T04:29:09;15.20;1.00
2030;DHT22;1020;48.854;8.830;2023-07-20T04:31:36;15.20;1.00
2030;DHT22;1020;48.854;8.830;2023-07-20T04:34:02;15.20;1.00
2030;DHT22;1020;48.854;8.830;2023-07-20T04:36:29;15.30;1.00
2030;DHT22;1020;48.854;8.830;2023-07-20T04:38:56;15.20;1.00
2030;DHT22;1020;48.854;8.830;2023-07-20T04:41:24;15.20;1.00
2030;DHT22;1020;48.854;8.830;2023-07-20T04:43:51;15.30;1.00
2030;DHT22;1020;48.854;8.830;2023-07-20T04:46:18;15.40;1.00
2030;DHT22;1020;48.854;8.830;2023-07-20T04:48:46;15.50;1.00
2030;DHT22;1020;48.854;8.830;2023-07-20T04:51:13;15.50;99.90
2030;DHT22;1020;48.854;8.830;2023-07-20T04:53:40;15.70;99.90
2030;DHT22;1020;48.854;8.830;2023-07-20T04:56:06;15.80;99.90
2030;DHT22;1020;48.854;8.830;2023-07-20T04:58:35;15.80;99.90
2030;DHT22;1020;48.854;8.830;2023-07-20T05:01:02;15.90;99.90
2030;DHT22;1020;48.854;8.830;2023-07-20T05:03:29;15.90;99.90
2030;DHT22;1020;48.854;8.830;2023-07-20T05:05:57;15.90;99.90
2030;DHT22;1020;48.854;8.830;2023-07-20T05:08:24;15.90;99.90
2030;DHT22;1020;48.854;8.830;2023-07-20T05:10:51;15.80;99.90
2030;DHT22;1020;48.854;8.830;2023-07-20T05:13:17;15.70;99.90
2030;DHT22;1020;48.854;8.830;2023-07-20T05:15:45;15.70;99.90
2030;DHT22;1020;48.854;8.830;2023-07-20T05:18:12;15.70;1.00
2030;DHT22;1020;48.854;8.830;2023-07-20T05:20:45;15.70;1.00
2030;DHT22;1020;48.854;8.830;2023-07-20T05:23:12;15.70;1.00
2030;DHT22;1020;48.854;8.830;2023-07-20T05:25:39;15.80;1.00
2030;DHT22;1020;48.854;8.830;2023-07-20T05:28:06;16.00;1.00
2030;DHT22;1020;48.854;8.830;2023-07-20T05:30:32;16.20;1.00
2030;DHT22;1020;48.854;8.830;2023-07-20T05:33:00;16.30;99.90
2030;DHT22;1020;48.854;8.830;2023-07-20T05:35:27;16.40;99.90
2030;DHT22;1020;48.854;8.830;2023-07-20T05:37:54;16.60;22.60
2030;DHT22;1020;48.854;8.830;2023-07-20T05:40:21;16.70;1.00
2030;DHT22;1020;48.854;8.830;2023-07-20T05:42:48;16.80;1.00
2030;DHT22;1020;48.854;8.830;2023-07-20T05:45:17;16.90;1.00
2030;DHT22;1020;48.854;8.830;2023-07-20T05:47:44;17.00;1.00
2030;DHT22;1020;48.854;8.830;2023-07-20T05:50:12;17.10;99.90
2030;DHT22;1020;48.854;8.830;2023-07-20T05:52:39;17.20;99.90
2030;DHT22;1020;48.854;8.830;2023-07-20T05:55:07;17.20;99.90
2030;DHT22;1020;48.854;8.830;2023-07-20T05:57:34;17.30;99.90
2030;DHT22;1020;48.854;8.830;2023-07-20T06:00:02;17.50;99.90
2030;DHT22;1020;48.854;8.830;2023-07-20T06:02:29;17.60;99.90
2030;DHT22;1020;48.854;8.830;2023-07-20T06:04:58;17.60;99.90
2030;DHT22;1020;48.854;8.830;2023-07-20T06:07:26;17.70;99.90
2030;DHT22;1020;48.854;8.830;2023-07-20T06:09:53;17.70;99.90
2030;DHT22;1020;48.854;8.830;2023-07-20T06:12:20;17.80;99.90
2030;DHT22;1020;48.854;8.830;2023-07-20T06:14:46;17.80;99.90
2030;DHT22;1020;48.854;8.830;2023-07-20T06:17:13;17.90;99.90
2030;DHT22;1020;48.854;8.830;2023-07-20T06:19:40;17.90;99.90
2030;DHT22;1020;48.854;8.830;2023-07-20T06:22:06;18.00;99.90
2030;DHT22;1020;48.854;8.830;2023-07-20T06:24:34;18.20;76.60
2030;DHT22;1020;48.854;8.830;2023-07-20T06:27:01;18.20;4.70
2030;DHT22;1020;48.854;8.830;2023-07-20T06:29:28;18.20;1.00
2030;DHT22;1020;48.854;8.830;2023-07-20T06:31:55;18.40;1.00
2030;DHT22;1020;48.854;8.830;2023-07-20T06:34:22;18.50;1.00
2030;DHT22;1020;48.854;8.830;2023-07-20T06:36:48;18.50;1.00
2030;DHT22;1020;48.854;8.830;2023-07-20T06:39:15;18.50;1.00
2030;DHT22;1020;48.854;8.830;2023-07-20T06:41:43;18.50;1.00
2030;DHT22;1020;48.854;8.830;2023-07-20T06:44:10;18.70;1.00
2030;DHT22;1020;48.854;8.830;2023-07-20T06:46:37;18.90;1.00
2030;DHT22;1020;48.854;8.830;2023-07-20T06:49:06;19.00;1.00
2030;DHT22;1020;48.854;8.830;2023-07-20T06:51:33;19.10;1.00
2030;DHT22;1020;48.854;8.830;2023-07-20T06:54:00;19.30;1.00
2030;DHT22;1020;48.854;8.830;2023-07-20T06:56:30;19.50;1.00
2030;DHT22;1020;48.854;8.830;2023-07-20T06:58:58;19.50;1.00
2030;DHT22;1020;48.854;8.830;2023-07-20T07:01:24;19.50;1.00
2030;DHT22;1020;48.854;8.830;2023-07-20T07:03:51;19.30;1.00
2030;DHT22;1020;48.854;8.830;2023-07-20T07:06:18;19.40;1.00
2030;DHT22;1020;48.854;8.830;2023-07-20T07:08:46;19.70;1.00
2030;DHT22;1020;48.854;8.830;2023-07-20T07:11:13;20.10;1.00
2030;DHT22;1020;48.854;8.830;2023-07-20T07:13:40;20.00;1.00
2030;DHT22;1020;48.854;8.830;2023-07-20T07:16:08;19.90;1.00
2030;DHT22;1020;48.854;8.830;2023-07-20T07:18:34;19.90;1.00
2030;DHT22;1020;48.854;8.830;2023-07-20T07:21:01;19.90;1.00
2030;DHT22;1020;48.854;8.830;2023-07-20T07:23:28;20.20;1.00
2030;DHT22;1020;48.854;8.830;2023-07-20T07:25:55;20.30;1.00
2030;DHT22;1020;48.854;8.830;2023-07-20T07:28:21;20.70;1.00
2030;DHT22;1020;48.854;8.830;2023-07-20T07:30:48;20.80;1.00
2030;DHT22;1020;48.854;8.830;2023-07-20T07:33:16;21.20;1.00
2030;DHT22;1020;48.854;8.830;2023-07-20T07:35:43;22.00;1.00
2030;DHT22;1020;48.854;8.830;2023-07-20T07:38:10;22.00;99.90
2030;DHT22;1020;48.854;8.830;2023-07-20T07:40:37;21.90;99.90
2030;DHT22;1020;48.854;8.830;2023-07-20T07:43:03;21.70;99.90
2030;DHT22;1020;48.854;8.830;2023-07-20T07:45:31;21.30;99.90
2030;DHT22;1020;48.854;8.830;2023-07-20T07:47:58;20.90;99.90
2030;DHT22;1020;48.854;8.830;2023-07-20T07:50:26;21.30;99.90
2030;DHT22;1020;48.854;8.830;2023-07-20T07:52:54;22.20;99.90
2030;DHT22;1020;48.854;8.830;2023-07-20T07:55:20;23.20;99.90
2030;DHT22;1020;48.854;8.830;2023-07-20T07:57:47;23.50;99.90
2030;DHT22;1020;48.854;8.830;2023-07-20T08:00:15;23.50;99.90
2030;DHT22;1020;48.854;8.830;2023-07-20T08:02:44;23.90;99.90
2030;DHT22;1020;48.854;8.830;2023-07-20T08:05:12;24.30;99.90
2030;DHT22;1020;48.854;8.830;2023-07-20T08:07:40;24.10;99.90
2030;DHT22;1020;48.854;8.830;2023-07-20T08:10:08;23.70;99.90
2030;DHT22;1020;48.854;8.830;2023-07-20T08:12:35;22.90;99.90
2030;DHT22;1020;48.854;8.830;2023-07-20T08:15:02;22.20;99.90
2030;DHT22;1020;48.854;8.830;2023-07-20T08:17:29;22.00;99.90
2030;DHT22;1020;48.854;8.830;2023-07-20T08:19:56;22.90;99.90
2030;DHT22;1020;48.854;8.830;2023-07-20T08:22:23;23.60;99.90
2030;DHT22;1020;48.854;8.830;2023-07-20T08:24:51;23.00;99.90
2030;DHT22;1020;48.854;8.830;2023-07-20T08:27:18;22.30;99.90
2030;DHT22;1020;48.854;8.830;2023-07-20T08:29:44;22.70;99.90
2030;DHT22;1020;48.854;8.830;2023-07-20T08:32:11;23.20;99.90
2030;DHT22;1020;48.854;8.830;2023-07-20T08:34:39;23.60;99.90
2030;DHT22;1020;48.854;8.830;2023-07-20T08:37:06;23.60;99.90
2030;DHT22;1020;48.854;8.830;2023-07-20T08:39:35;23.50;99.90
2030;DHT22;1020;48.854;8.830;2023-07-20T08:42:04;24.20;99.90
2030;DHT22;1020;48.854;8.830;2023-07-20T08:44:33;24.20;99.90
2030;DHT22;1020;48.854;8.830;2023-07-20T08:47:01;23.60;99.90
2030;DHT22;1020;48.854;8.830;2023-07-20T08:49:29;23.70;99.90
2030;DHT22;1020;48.854;8.830;2023-07-20T08:51:58;23.30;99.90
2030;DHT22;1020;48.854;8.830;2023-07-20T08:54:29;23.40;99.90
2030;DHT22;1020;48.854;8.830;2023-07-20T08:56:58;23.80;99.90
2030;DHT22;1020;48.854;8.830;2023-07-20T08:59:29;23.80;99.90
2030;DHT22;1020;48.854;8.830;2023-07-20T09:01:56;23.90;99.90
2030;DHT22;1020;48.854;8.830;2023-07-20T09:04:24;24.20;99.90
2030;DHT22;1020;48.854;8.830;2023-07-20T09:06:51;23.90;99.90
2030;DHT22;1020;48.854;8.830;2023-07-20T09:09:18;23.70;99.90
2030;DHT22;1020;48.854;8.830;2023-07-20T09:11:48;23.80;99.90
2030;DHT22;1020;48.854;8.830;2023-07-20T09:14:15;24.10;99.90
2030;DHT22;1020;48.854;8.830;2023-07-20T09:16:51;24.40;99.90
2030;DHT22;1020;48.854;8.830;2023-07-20T09:19:18;24.30;99.90
2030;DHT22;1020;48.854;8.830;2023-07-20T09:21:46;24.10;99.90
2030;DHT22;1020;48.854;8.830;2023-07-20T09:24:13;24.90;99.90
2030;DHT22;1020;48.854;8.830;2023-07-20T09:26:41;25.90;99.90
2030;DHT22;1020;48.854;8.830;2023-07-20T09:29:08;25.90;99.90
2030;DHT22;1020;48.854;8.830;2023-07-20T09:31:35;25.70;99.90
2030;DHT22;1020;48.854;8.830;2023-07-20T09:34:04;25.00;99.90
2030;DHT22;1020;48.854;8.830;2023-07-20T09:36:33;25.30;99.90
2030;DHT22;1020;48.854;8.830;2023-07-20T09:39:00;26.20;99.90
2030;DHT22;1020;48.854;8.830;2023-07-20T09:41:27;26.00;99.90
2030;DHT22;1020;48.854;8.830;2023-07-20T09:43:54;26.00;99.90
2030;DHT22;1020;48.854;8.830;2023-07-20T09:46:22;25.60;99.90
2030;DHT22;1020;48.854;8.830;2023-07-20T09:48:52;25.90;99.90
2030;DHT22;1020;48.854;8.830;2023-07-20T09:51:21;26.00;99.90
2030;DHT22;1020;48.854;8.830;2023-07-20T09:53:48;26.10;99.90
2030;DHT22;1020;48.854;8.830;2023-07-20T09:56:17;26.30;99.90
2030;DHT22;1020;48.854;8.830;2023-07-20T09:58:48;26.10;99.90
2030;DHT22;1020;48.854;8.830;2023-07-20T10:01:17;26.50;99.90
2030;DHT22;1020;48.854;8.830;2023-07-20T10:03:47;26.60;99.90
2030;DHT22;1020;48.854;8.830;2023-07-20T10:06:15;26.20;99.90
2030;DHT22;1020;48.854;8.830;2023-07-20T10:08:48;27.00;99.90
2030;DHT22;1020;48.854;8.830;2023-07-20T10:11:16;27.00;99.90
2030;DHT22;1020;48.854;8.830;2023-07-20T10:13:44;27.40;99.90
2030;DHT22;1020;48.854;8.830;2023-07-20T10:16:11;28.50;99.90
2030;DHT22;1020;48.854;8.830;2023-07-20T10:18:46;28.30;99.90
2030;DHT22;1020;48.854;8.830;2023-07-20T10:21:17;28.70;99.90
2030;DHT22;1020;48.854;8.830;2023-07-20T10:23:44;27.40;99.90
2030;DHT22;1020;48.854;8.830;2023-07-20T10:26:13;27.10;99.90
2030;DHT22;1020;48.854;8.830;2023-07-20T10:28:40;27.60;99.90
2030;DHT22;1020;48.854;8.830;2023-07-20T10:31:08;28.70;99.90
2030;DHT22;1020;48.854;8.830;2023-07-20T10:33:36;28.90;99.90
2030;DHT22;1020;48.854;8.830;2023-07-20T10:36:04;28.60;99.90
2030;DHT22;1020;48.854;8.830;2023-07-20T10:38:41;29.20;99.90
2030;DHT22;1020;48.854;8.830;2023-07-20T10:41:20;29.00;99.90
2030;DHT22;1020;48.854;8.830;2023-07-20T10:43:48;27.70;99.90
2030;DHT22;1020;48.854;8.830;2023-07-20T10:46:15;27.40;99.90
2030;DHT22;1020;48.854;8.830;2023-07-20T10:49:00;27.40;99.90
2030;DHT22;1020;48.854;8.830;2023-07-20T10:51:27;27.30;99.90
2030;DHT22;1020;48.854;8.830;2023-07-20T10:53:55;27.20;99.90
2030;DHT22;1020;48.854;8.830;2023-07-20T10:56:26;27.80;99.90
2030;DHT22;1020;48.854;8.830;2023-07-20T10:58:57;27.70;99.90
2030;DHT22;1020;48.854;8.830;2023-07-20T11:01:28;27.90;99.90
2030;DHT22;1020;48.854;8.830;2023-07-20T11:03:57;28.40;99.90
2030;DHT22;1020;48.854;8.830;2023-07-20T11:06:32;28.80;99.90
2030;DHT22;1020;48.854;8.830;2023-07-20T11:09:05;29.60;99.90
2030;DHT22;1020;48.854;8.830;2023-07-20T11:11:35;29.60;99.90
2030;DHT22;1020;48.854;8.830;2023-07-20T11:14:03;29.20;99.90
2030;DHT22;1020;48.854;8.830;2023-07-20T11:16:34;28.70;99.90
2030;DHT22;1020;48.854;8.830;2023-07-20T11:19:02;28.70;99.90
2030;DHT22;1020;48.854;8.830;2023-07-20T11:21:30;27.60;99.90
2030;DHT22;1020;48.854;8.830;2023-07-20T11:24:03;27.30;99.90
2030;DHT22;1020;48.854;8.830;2023-07-20T11:26:30;27.60;99.90
2030;DHT22;1020;48.854;8.830;2023-07-20T11:29:07;28.30;99.90
2030;DHT22;1020;48.854;8.830;2023-07-20T11:31:35;28.10;99.90
2030;DHT22;1020;48.854;8.830;2023-07-20T11:34:02;28.40;99.90
2030;DHT22;1020;48.854;8.830;2023-07-20T11:36:29;28.80;99.90
2030;DHT22;1020;48.854;8.830;2023-07-20T11:38:56;29.30;99.90
2030;DHT22;1020;48.854;8.830;2023-07-20T11:41:23;29.30;99.90
2030;DHT22;1020;48.854;8.830;2023-07-20T11:43:50;28.60;99.90
2030;DHT22;1020;48.854;8.830;2023-07-20T11:46:19;28.40;99.90
2030;DHT22;1020;48.854;8.830;2023-07-20T11:48:45;29.00;99.90
2030;DHT22;1020;48.854;8.830;2023-07-20T11:51:15;29.90;99.90
2030;DHT22;1020;48.854;8.830;2023-07-20T11:53:43;29.40;99.90
2030;DHT22;1020;48.854;8.830;2023-07-20T11:56:11;28.70;99.90
2030;DHT22;1020;48.854;8.830;2023-07-20T11:58:42;30.10;99.90
2030;DHT22;1020;48.854;8.830;2023-07-20T12:01:09;30.30;99.90
2030;DHT22;1020;48.854;8.830;2023-07-20T12:03:38;31.90;99.90
2030;DHT22;1020;48.854;8.830;2023-07-20T12:06:08;31.70;99.90
2030;DHT22;1020;48.854;8.830;2023-07-20T12:08:38;30.50;99.90
2030;DHT22;1020;48.854;8.830;2023-07-20T12:11:05;29.70;99.90
2030;DHT22;1020;48.854;8.830;2023-07-20T12:13:36;30.60;99.90
2030;DHT22;1020;48.854;8.830;2023-07-20T12:16:10;29.80;99.90
2030;DHT22;1020;48.854;8.830;2023-07-20T12:18:39;30.20;99.90
2030;DHT22;1020;48.854;8.830;2023-07-20T12:21:06;30.40;99.90
2030;DHT22;1020;48.854;8.830;2023-07-20T12:23:38;30.90;99.90
2030;DHT22;1020;48.854;8.830;2023-07-20T12:26:06;32.00;99.90
2030;DHT22;1020;48.854;8.830;2023-07-20T12:28:38;32.00;99.90
2030;DHT22;1020;48.854;8.830;2023-07-20T12:31:05;32.40;99.90
2030;DHT22;1020;48.854;8.830;2023-07-20T12:33:32;30.40;99.90
2030;DHT22;1020;48.854;8.830;2023-07-20T12:36:00;30.80;99.90
2030;DHT22;1020;48.854;8.830;2023-07-20T12:38:27;30.80;99.90
2030;DHT22;1020;48.854;8.830;2023-07-20T12:40:54;31.20;99.90
2030;DHT22;1020;48.854;8.830;2023-07-20T12:43:21;31.50;99.90
2030;DHT22;1020;48.854;8.830;2023-07-20T12:45:48;31.60;99.90
2030;DHT22;1020;48.854;8.830;2023-07-20T12:48:15;30.20;99.90
2030;DHT22;1020;48.854;8.830;2023-07-20T12:50:41;30.20;99.90
2030;DHT22;1020;48.854;8.830;2023-07-20T12:53:10;31.30;99.90
2030;DHT22;1020;48.854;8.830;2023-07-20T12:55:37;31.40;99.90
2030;DHT22;1020;48.854;8.830;2023-07-20T12:58:04;31.70;99.90
2030;DHT22;1020;48.854;8.830;2023-07-20T13:00:31;32.30;99.90
2030;DHT22;1020;48.854;8.830;2023-07-20T13:02:58;32.90;99.90
2030;DHT22;1020;48.854;8.830;2023-07-20T13:05:25;32.90;99.90
2030;DHT22;1020;48.854;8.830;2023-07-20T13:07:52;31.50;99.90
2030;DHT22;1020;48.854;8.830;2023-07-20T13:10:20;31.60;99.90
2030;DHT22;1020;48.854;8.830;2023-07-20T13:12:46;31.30;99.90
2030;DHT22;1020;48.854;8.830;2023-07-20T13:15:13;31.40;99.90
2030;DHT22;1020;48.854;8.830;2023-07-20T13:17:40;32.50;99.90
2030;DHT22;1020;48.854;8.830;2023-07-20T13:20:08;32.20;99.90
2030;DHT22;1020;48.854;8.830;2023-07-20T13:22:36;31.00;99.90
2030;DHT22;1020;48.854;8.830;2023-07-20T13:25:03;30.70;99.90
2030;DHT22;1020;48.854;8.830;2023-07-20T13:27:32;30.70;99.90
2030;DHT22;1020;48.854;8.830;2023-07-20T13:29:59;31.40;99.90
2030;DHT22;1020;48.854;8.830;2023-07-20T13:32:26;31.20;99.90
2030;DHT22;1020;48.854;8.830;2023-07-20T13:34:53;31.50;99.90
2030;DHT22;1020;48.854;8.830;2023-07-20T13:37:20;31.30;99.90
2030;DHT22;1020;48.854;8.830;2023-07-20T13:39:47;31.70;99.90
2030;DHT22;1020;48.854;8.830;2023-07-20T13:42:14;31.80;99.90
2030;DHT22;1020;48.854;8.830;2023-07-20T13:44:42;32.40;99.90
2030;DHT22;1020;48.854;8.830;2023-07-20T13:47:09;32.10;99.90
2030;DHT22;1020;48.854;8.830;2023-07-20T13:49:35;31.60;99.90
2030;DHT22;1020;48.854;8.830;2023-07-20T13:52:02;31.50;99.90
2030;DHT22;1020;48.854;8.830;2023-07-20T13:54:29;31.90;99.90
2030;DHT22;1020;48.854;8.830;2023-07-20T13:56:56;32.00;99.90
2030;DHT22;1020;48.854;8.830;2023-07-20T13:59:23;32.00;99.90
2030;DHT22;1020;48.854;8.830;2023-07-20T14:01:52;32.40;99.90
2030;DHT22;1020;48.854;8.830;2023-07-20T14:04:19;31.90;99.90
2030;DHT22;1020;48.854;8.830;2023-07-20T14:06:45;31.40;99.90
2030;DHT22;1020;48.854;8.830;2023-07-20T14:09:12;31.80;99.90
2030;DHT22;1020;48.854;8.830;2023-07-20T14:11:39;32.60;99.90
2030;DHT22;1020;48.854;8.830;2023-07-20T14:14:06;31.90;99.90
2030;DHT22;1020;48.854;8.830;2023-07-20T14:16:33;31.40;99.90
2030;DHT22;1020;48.854;8.830;2023-07-20T14:19:01;31.00;99.90
2030;DHT22;1020;48.854;8.830;2023-07-20T14:21:30;31.20;99.90
2030;DHT22;1020;48.854;8.830;2023-07-20T14:23:57;31.70;99.90
2030;DHT22;1020;48.854;8.830;2023-07-20T14:26:24;30.50;99.90
2030;DHT22;1020;48.854;8.830;2023-07-20T14:28:51;30.10;99.90
2030;DHT22;1020;48.854;8.830;2023-07-20T14:31:17;30.00;99.90
2030;DHT22;1020;48.854;8.830;2023-07-20T14:33:45;29.20;99.90
2030;DHT22;1020;48.854;8.830;2023-07-20T14:36:13;30.00;99.90
2030;DHT22;1020;48.854;8.830;2023-07-20T14:38:40;30.80;99.90
2030;DHT22;1020;48.854;8.830;2023-07-20T14:41:07;31.30;99.90
2030;DHT22;1020;48.854;8.830;2023-07-20T14:43:33;30.80;99.90
2030;DHT22;1020;48.854;8.830;2023-07-20T14:46:01;31.50;99.90
2030;DHT22;1020;48.854;8.830;2023-07-20T14:48:27;31.60;99.90
2030;DHT22;1020;48.854;8.830;2023-07-20T14:50:54;31.50;99.90
2030;DHT22;1020;48.854;8.830;2023-07-20T14:53:22;31.50;99.90
2030;DHT22;1020;48.854;8.830;2023-07-20T14:55:49;31.20;99.90
2030;DHT22;1020;48.854;8.830;2023-07-20T14:58:16;30.20;99.90
2030;DHT22;1020;48.854;8.830;2023-07-20T15:00:43;29.10;99.90
2030;DHT22;1020;48.854;8.830;2023-07-20T15:03:10;28.90;99.90
2030;DHT22;1020;48.854;8.830;2023-07-20T15:05:36;29.40;99.90
2030;DHT22;1020;48.854;8.830;2023-07-20T15:08:04;29.80;99.90
2030;DHT22;1020;48.854;8.830;2023-07-20T15:10:32;29.30;99.90
2030;DHT22;1020;48.854;8.830;2023-07-20T15:12:59;28.80;99.90
2030;DHT22;1020;48.854;8.830;2023-07-20T15:15:26;28.90;99.90
2030;DHT22;1020;48.854;8.830;2023-07-20T15:17:53;29.40;99.90
2030;DHT22;1020;48.854;8.830;2023-07-20T15:20:19;30.00;99.90
2030;DHT22;1020;48.854;8.830;2023-07-20T15:22:46;29.90;99.90
2030;DHT22;1020;48.854;8.830;2023-07-20T15:25:13;29.00;99.90
2030;DHT22;1020;48.854;8.830;2023-07-20T15:27:41;28.90;99.90
2030;DHT22;1020;48.854;8.830;2023-07-20T15:30:10;28.00;99.90
2030;DHT22;1020;48.854;8.830;2023-07-20T15:32:36;27.40;99.90
2030;DHT22;1020;48.854;8.830;2023-07-20T15:35:04;27.80;99.90
2030;DHT22;1020;48.854;8.830;2023-07-20T15:37:31;28.30;99.90
2030;DHT22;1020;48.854;8.830;2023-07-20T15:39:58;28.20;99.90
2030;DHT22;1020;48.854;8.830;2023-07-20T15:42:29;28.10;99.90
2030;DHT22;1020;48.854;8.830;2023-07-20T15:44:57;27.70;99.90
2030;DHT22;1020;48.854;8.830;2023-07-20T15:47:24;27.90;99.90
2030;DHT22;1020;48.854;8.830;2023-07-20T15:49:51;28.20;99.90
2030;DHT22;1020;48.854;8.830;2023-07-20T15:52:17;28.30;99.90
2030;DHT22;1020;48.854;8.830;2023-07-20T15:54:44;27.30;99.90
2030;DHT22;1020;48.854;8.830;2023-07-20T15:57:11;26.70;99.90
2030;DHT22;1020;48.854;8.830;2023-07-20T15:59:38;26.70;99.90
2030;DHT22;1020;48.854;8.830;2023-07-20T16:02:07;26.90;99.90
2030;DHT22;1020;48.854;8.830;2023-07-20T16:04:34;26.90;99.90
2030;DHT22;1020;48.854;8.830;2023-07-20T16:07:01;26.60;99.90
2030;DHT22;1020;48.854;8.830;2023-07-20T16:09:27;26.20;99.90
2030;DHT22;1020;48.854;8.830;2023-07-20T16:11:54;26.20;99.90